createdAt,value
2023-04-10T00:01:03.320Z,95.95
2023-04-10T00:03:35.517Z,100.00
2023-04-10T00:06:07.280Z,100.00
2023-04-10T00:08:38.627Z,100.00
2023-04-10T00:11:10.034Z,100.00
2023-04-10T00:13:41.539Z,93.26
2023-04-10T00:16:13.700Z,100.00
2023-04-10T00:18:44.668Z,99.26
2023-04-10T00:21:15.924Z,94.37
2023-04-10T00:23:47.234Z,99.90
2023-04-10T00:26:18.183Z,93.03
2023-04-10T00:28:48.876Z,96.29
2023-04-10T00:31:20.229Z,97.25
2023-04-10T00:33:52.081Z,90.13
2023-04-10T00:36:24.742Z,95.67
2023-04-10T00:38:56.900Z,100.00
2023-04-10T00:41:28.810Z,93.98
2023-04-10T00:44:00.363Z,93.89
2023-04-10T00:46:33.912Z,94.59
2023-04-10T00:49:05.455Z,91.69
2023-04-10T00:51:37.288Z,92.38
2023-04-10T00:54:07.977Z,95.99
2023-04-10T00:56:40.482Z,99.68
2023-04-10T00:59:10.827Z,100.00
2023-04-10T01:01:42.205Z,100.00
2023-04-10T01:04:14.759Z,95.99
2023-04-10T01:07:07.815Z,98.75
2023-04-10T01:10:08.038Z,98.40
2023-04-10T01:13:07.212Z,97.58
2023-04-10T01:15:52.208Z,96.66
2023-04-10T01:18:52.525Z,100.00
2023-04-10T01:21:24.263Z,100.00
2023-04-10T01:24:27.369Z,100.00
2023-04-10T01:27:26.081Z,100.00
2023-04-10T01:29:59.792Z,100.00
2023-04-10T01:32:33.968Z,100.00
2023-04-10T01:35:10.114Z,100.00
2023-04-10T01:37:45.249Z,100.00
2023-04-10T01:40:18.327Z,100.00
2023-04-10T01:42:55.248Z,100.00
2023-04-10T01:45:35.230Z,100.00
2023-04-10T01:48:07.148Z,100.00
2023-04-10T01:50:38.615Z,100.00
2023-04-10T01:53:10.062Z,100.00
2023-04-10T01:55:42.006Z,100.00
2023-04-10T01:58:15.231Z,100.00
2023-04-10T02:00:46.628Z,100.00
2023-04-10T02:03:19.485Z,100.00
2023-04-10T02:06:19.248Z,100.00
2023-04-10T02:09:08.600Z,100.00
2023-04-10T02:12:01.055Z,100.00
2023-04-10T02:14:34.896Z,100.00
2023-04-10T02:17:06.239Z,100.00
2023-04-10T02:19:36.696Z,100.00
2023-04-10T02:22:08.335Z,100.00
2023-04-10T02:24:39.812Z,100.00
2023-04-10T02:27:11.243Z,100.00
2023-04-10T02:29:42.003Z,100.00
2023-04-10T02:32:13.524Z,100.00
2023-04-10T02:34:45.377Z,100.00
2023-04-10T02:37:16.882Z,100.00
2023-04-10T02:39:47.648Z,100.00
2023-04-10T02:42:19.650Z,100.00
2023-04-10T02:44:50.706Z,100.00
2023-04-10T02:47:21.963Z,100.00
2023-04-10T02:49:53.790Z,100.00
2023-04-10T02:52:24.609Z,100.00
2023-04-10T02:54:55.595Z,100.00
2023-04-10T02:57:33.366Z,100.00
2023-04-10T03:00:07.202Z,100.00
2023-04-10T03:02:58.614Z,100.00
2023-04-10T03:05:35.032Z,100.00
2023-04-10T03:08:06.549Z,100.00
2023-04-10T03:10:37.837Z,100.00
2023-04-10T03:13:09.731Z,100.00
2023-04-10T03:15:40.897Z,100.00
2023-04-10T03:18:12.467Z,100.00
2023-04-10T03:20:45.569Z,100.00
2023-04-10T03:23:17.301Z,100.00
2023-04-10T03:25:55.252Z,100.00
2023-04-10T03:28:31.176Z,100.00
2023-04-10T03:31:02.610Z,100.00
2023-04-10T03:33:37.902Z,100.00
2023-04-10T03:36:10.784Z,100.00
2023-04-10T03:38:42.115Z,100.00
2023-04-10T03:41:13.471Z,100.00
2023-04-10T03:43:45.262Z,100.00
2023-04-10T03:46:16.982Z,100.00
2023-04-10T03:48:48.674Z,100.00
2023-04-10T03:51:20.270Z,100.00
2023-04-10T03:53:51.188Z,100.00
2023-04-10T03:56:22.569Z,100.00
2023-04-10T03:58:53.932Z,100.00
2023-04-10T04:01:25.683Z,100.00
2023-04-10T04:04:11.207Z,100.00
2023-04-10T04:07:02.470Z,100.00
2023-04-10T04:09:50.162Z,100.00
2023-04-10T04:12:39.613Z,100.00
2023-04-10T04:15:27.167Z,100.00
2023-04-10T04:18:07.854Z,100.00
2023-04-10T04:20:50.916Z,100.00
2023-04-10T04:23:44.497Z,100.00
2023-04-10T04:26:54.156Z,100.00
2023-04-10T04:29:51.483Z,100.00
2023-04-10T04:32:28.799Z,100.00
2023-04-10T04:35:26.352Z,100.00
2023-04-10T04:38:15.472Z,100.00
2023-04-10T04:41:24.944Z,100.00
2023-04-10T04:44:22.191Z,100.00
2023-04-10T04:47:14.592Z,100.00
2023-04-10T04:50:08.705Z,100.00
2023-04-10T04:52:58.372Z,100.00
2023-04-10T04:55:49.349Z,100.00
2023-04-10T04:58:55.708Z,100.00
2023-04-10T05:01:37.779Z,100.00
2023-04-10T05:04:23.605Z,100.00
2023-04-10T05:07:02.536Z,100.00
2023-04-10T05:09:55.664Z,100.00
2023-04-10T05:13:04.543Z,100.00
2023-04-10T05:15:48.431Z,100.00
2023-04-10T05:18:39.852Z,100.00
2023-04-10T05:21:28.878Z,100.00
2023-04-10T05:24:25.117Z,100.00
2023-04-10T05:27:14.234Z,100.00
2023-04-10T05:30:10.373Z,100.00
2023-04-10T05:32:52.859Z,100.00
2023-04-10T05:35:41.743Z,100.00
2023-04-10T05:38:39.185Z,100.00
2023-04-10T05:41:39.798Z,100.00
2023-04-10T05:44:19.635Z,100.00
2023-04-10T05:47:05.948Z,100.00
2023-04-10T05:49:55.431Z,100.00
2023-04-10T05:52:40.555Z,100.00
2023-04-10T05:55:34.755Z,100.00
2023-04-10T05:58:38.391Z,100.00
2023-04-10T06:01:25.940Z,100.00
2023-04-10T06:04:04.371Z,100.00
2023-04-10T06:06:36.071Z,100.00
2023-04-10T06:09:07.826Z,100.00
2023-04-10T06:11:38.949Z,100.00
2023-04-10T06:14:09.980Z,100.00
2023-04-10T06:16:46.504Z,100.00
2023-04-10T06:19:18.946Z,100.00
2023-04-10T06:21:50.852Z,100.00
2023-04-10T06:24:23.324Z,100.00
2023-04-10T06:26:55.189Z,100.00
2023-04-10T06:29:27.790Z,100.00
2023-04-10T06:31:58.997Z,100.00
2023-04-10T06:34:31.983Z,100.00
2023-04-10T06:37:07.320Z,100.00
2023-04-10T06:39:38.532Z,100.00
2023-04-10T06:42:09.668Z,100.00
2023-04-10T06:45:10.504Z,100.00
2023-04-10T06:47:42.235Z,100.00
2023-04-10T06:50:13.593Z,100.00
2023-04-10T06:52:44.456Z,100.00
2023-04-10T06:55:15.854Z,100.00
2023-04-10T06:57:47.057Z,100.00
2023-04-10T07:00:18.281Z,100.00
2023-04-10T07:02:49.586Z,100.00
2023-04-10T07:05:20.588Z,100.00
2023-04-10T07:07:52.420Z,100.00
2023-04-10T07:10:23.621Z,100.00
2023-04-10T07:12:55.111Z,100.00
2023-04-10T07:15:27.722Z,100.00
2023-04-10T07:17:58.890Z,100.00
2023-04-10T07:20:30.373Z,100.00
2023-04-10T07:23:00.922Z,100.00
2023-04-10T07:25:32.581Z,100.00
2023-04-10T07:28:03.211Z,100.00
2023-04-10T07:30:34.529Z,100.00
2023-04-10T07:33:05.851Z,100.00
2023-04-10T07:35:37.964Z,100.00
2023-04-10T07:38:09.094Z,100.00
2023-04-10T07:40:40.200Z,100.00
2023-04-10T07:43:11.714Z,100.00
2023-04-10T07:45:43.214Z,100.00
2023-04-10T07:48:15.181Z,100.00
2023-04-10T07:50:46.744Z,100.00
2023-04-10T07:53:17.961Z,100.00
2023-04-10T07:55:52.233Z,100.00
2023-04-10T07:58:24.021Z,100.00
2023-04-10T08:00:55.654Z,100.00
2023-04-10T08:03:29.126Z,100.00
2023-04-10T08:06:00.365Z,100.00
2023-04-10T08:08:31.472Z,100.00
2023-04-10T08:11:02.932Z,100.00
2023-04-10T08:13:34.030Z,100.00
2023-04-10T08:16:05.394Z,100.00
2023-04-10T08:18:36.803Z,100.00
2023-04-10T08:21:08.552Z,100.00
2023-04-10T08:23:39.911Z,100.00
2023-04-10T08:26:11.155Z,100.00
2023-04-10T08:28:42.143Z,100.00
2023-04-10T08:31:13.382Z,100.00
2023-04-10T08:33:44.806Z,100.00
2023-04-10T08:36:20.325Z,100.00
2023-04-10T08:38:51.764Z,100.00
2023-04-10T08:41:23.233Z,100.00
2023-04-10T08:43:54.733Z,100.00
2023-04-10T08:46:29.744Z,100.00
2023-04-10T08:49:07.070Z,100.00
2023-04-10T08:52:01.615Z,100.00
2023-04-10T08:54:34.998Z,100.00
2023-04-10T08:57:07.326Z,100.00
2023-04-10T08:59:39.586Z,100.00
2023-04-10T09:02:10.963Z,100.00
2023-04-10T09:04:42.307Z,100.00
2023-04-10T09:07:15.179Z,100.00
2023-04-10T09:09:47.613Z,100.00
2023-04-10T09:12:19.114Z,100.00
2023-04-10T09:14:54.746Z,100.00
2023-04-10T09:17:26.961Z,100.00
2023-04-10T09:19:58.613Z,100.00
2023-04-10T09:22:34.454Z,100.00
2023-04-10T09:25:07.099Z,100.00
2023-04-10T09:27:40.202Z,100.00
2023-04-10T09:30:11.839Z,100.00
2023-04-10T09:32:45.303Z,100.00
2023-04-10T09:35:17.730Z,100.00
2023-04-10T09:37:49.329Z,100.00
2023-04-10T09:40:27.894Z,100.00
2023-04-10T09:42:59.524Z,100.00
2023-04-10T09:45:49.498Z,100.00
2023-04-10T09:48:21.672Z,100.00
2023-04-10T09:50:53.463Z,100.00
2023-04-10T09:53:24.780Z,100.00
2023-04-10T09:55:56.051Z,100.00
2023-04-10T09:58:27.971Z,100.00
2023-04-10T10:00:59.497Z,100.00
2023-04-10T10:03:30.699Z,100.00
2023-04-10T10:06:01.776Z,100.00
2023-04-10T10:08:37.072Z,100.00
2023-04-10T10:11:15.934Z,100.00
2023-04-10T10:13:51.641Z,100.00
2023-04-10T10:16:32.630Z,100.00
2023-04-10T10:19:22.523Z,100.00
2023-04-10T10:21:54.953Z,100.00
2023-04-10T10:24:27.739Z,100.00
2023-04-10T10:26:59.729Z,100.00
2023-04-10T10:29:30.075Z,100.00
2023-04-10T10:32:04.437Z,100.00
2023-04-10T10:34:36.284Z,100.00
2023-04-10T10:37:07.210Z,100.00
2023-04-10T10:39:57.217Z,100.00
2023-04-10T10:42:33.757Z,100.00
2023-04-10T10:45:34.000Z,100.00
2023-04-10T10:48:05.616Z,100.00
2023-04-10T10:50:54.078Z,100.00
2023-04-10T10:53:46.503Z,100.00
2023-04-10T10:56:28.304Z,100.00
2023-04-10T10:59:00.321Z,100.00
2023-04-10T11:01:31.885Z,100.00
2023-04-10T11:04:03.739Z,100.00
2023-04-10T11:06:54.458Z,100.00
2023-04-10T11:09:51.922Z,100.00
2023-04-10T11:12:25.522Z,100.00
2023-04-10T11:15:08.747Z,100.00
2023-04-10T11:17:55.671Z,100.00
2023-04-10T11:20:30.398Z,100.00
2023-04-10T11:23:14.762Z,100.00
2023-04-10T11:25:55.092Z,100.00
2023-04-10T11:28:35.701Z,100.00
2023-04-10T11:31:22.348Z,100.00
2023-04-10T11:34:00.217Z,100.00
2023-04-10T11:36:32.135Z,100.00
2023-04-10T11:39:07.441Z,100.00
2023-04-10T11:41:44.287Z,100.00
2023-04-10T11:44:38.203Z,100.00
2023-04-10T11:47:09.357Z,100.00
2023-04-10T11:49:40.708Z,100.00
2023-04-10T11:52:11.852Z,100.00
2023-04-10T11:54:50.886Z,100.00
2023-04-10T11:57:22.373Z,100.00
2023-04-10T11:59:53.604Z,100.00
2023-04-10T12:02:25.226Z,100.00
2023-04-10T12:05:04.878Z,100.00
2023-04-10T12:07:36.216Z,100.00
2023-04-10T12:10:08.625Z,100.00
2023-04-10T12:12:39.976Z,100.00
2023-04-10T12:15:32.298Z,100.00
2023-04-10T12:18:05.717Z,100.00
2023-04-10T12:20:37.743Z,100.00
2023-04-10T12:23:09.219Z,100.00
2023-04-10T12:25:41.234Z,100.00
2023-04-10T12:28:22.889Z,100.00
2023-04-10T12:30:55.249Z,100.00
2023-04-10T12:33:26.891Z,100.00
2023-04-10T12:35:58.394Z,100.00
2023-04-10T12:38:41.059Z,100.00
2023-04-10T12:41:13.391Z,100.00
2023-04-10T12:43:46.220Z,100.00
2023-04-10T12:46:29.208Z,100.00
2023-04-10T12:49:12.369Z,100.00
2023-04-10T12:51:47.628Z,100.00
2023-04-10T12:54:32.199Z,100.00
2023-04-10T12:57:07.723Z,100.00
2023-04-10T12:59:38.880Z,100.00
2023-04-10T13:02:09.876Z,100.00
2023-04-10T13:04:41.551Z,100.00
2023-04-10T13:07:13.123Z,100.00
2023-04-10T13:09:44.288Z,100.00
2023-04-10T13:12:15.798Z,100.00
2023-04-10T13:14:48.230Z,100.00
2023-04-10T13:17:19.275Z,100.00
2023-04-10T13:19:50.608Z,100.00
2023-04-10T13:22:22.557Z,100.00
2023-04-10T13:24:53.682Z,100.00
2023-04-10T13:27:28.480Z,100.00
2023-04-10T13:29:59.897Z,100.00
2023-04-10T13:32:31.623Z,100.00
2023-04-10T13:35:03.041Z,100.00
2023-04-10T13:37:34.807Z,100.00
2023-04-10T13:40:06.835Z,100.00
2023-04-10T13:42:41.273Z,100.00
2023-04-10T13:45:18.057Z,100.00
2023-04-10T13:47:49.380Z,100.00
2023-04-10T13:50:20.757Z,100.00
2023-04-10T13:52:53.513Z,100.00
2023-04-10T13:55:24.641Z,100.00
2023-04-10T13:57:56.278Z,100.00
2023-04-10T14:00:27.811Z,100.00
2023-04-10T14:02:59.386Z,100.00
2023-04-10T14:05:30.640Z,100.00
2023-04-10T14:08:01.765Z,100.00
2023-04-10T14:10:32.962Z,100.00
2023-04-10T14:13:03.988Z,100.00
2023-04-10T14:15:36.342Z,100.00
2023-04-10T14:18:07.793Z,100.00
2023-04-10T14:20:39.209Z,100.00
2023-04-10T14:23:11.135Z,100.00
2023-04-10T14:25:42.330Z,100.00
2023-04-10T14:28:19.350Z,100.00
2023-04-10T14:30:52.660Z,100.00
2023-04-10T14:33:23.968Z,100.00
2023-04-10T14:35:56.515Z,100.00
2023-04-10T14:38:27.798Z,100.00
2023-04-10T14:40:59.141Z,100.00
2023-04-10T14:43:30.346Z,100.00
2023-04-10T14:46:01.996Z,100.00
2023-04-10T14:48:33.307Z,100.00
2023-04-10T14:51:05.936Z,100.00
2023-04-10T14:53:37.373Z,100.00
2023-04-10T14:56:16.301Z,100.00
2023-04-10T14:58:49.206Z,100.00
2023-04-10T15:01:20.577Z,100.00
2023-04-10T15:03:52.220Z,100.00
2023-04-10T15:06:23.458Z,100.00
2023-04-10T15:09:23.692Z,100.00
2023-04-10T15:12:10.082Z,100.00
2023-04-10T15:15:04.836Z,100.00
2023-04-10T15:18:02.330Z,100.00
2023-04-10T15:21:04.198Z,100.00
2023-04-10T15:24:00.207Z,100.00
2023-04-10T15:26:31.942Z,100.00
2023-04-10T15:29:03.066Z,100.00
2023-04-10T15:31:34.362Z,100.00
2023-04-10T15:34:05.639Z,100.00
2023-04-10T15:36:36.599Z,100.00
2023-04-10T15:39:07.784Z,100.00
2023-04-10T15:41:39.458Z,100.00
2023-04-10T15:44:10.824Z,100.00
2023-04-10T15:46:44.342Z,100.00
2023-04-10T15:49:29.816Z,100.00
2023-04-10T15:52:06.836Z,100.00
2023-04-10T15:55:10.756Z,100.00
2023-04-10T15:58:17.227Z,100.00
2023-04-10T16:00:51.763Z,100.00
2023-04-10T16:03:43.873Z,100.00
2023-04-10T16:06:53.602Z,100.00
2023-04-10T16:09:41.115Z,100.00
2023-04-10T16:12:18.677Z,100.00
2023-04-10T16:14:56.710Z,100.00
2023-04-10T16:18:11.068Z,100.00
2023-04-10T16:20:45.485Z,100.00
2023-04-10T16:23:17.177Z,100.00
2023-04-10T16:25:48.428Z,100.00
2023-04-10T16:28:19.679Z,100.00
2023-04-10T16:30:51.180Z,100.00
2023-04-10T16:33:22.382Z,100.00
2023-04-10T16:35:55.268Z,100.00
2023-04-10T16:38:29.934Z,100.00
2023-04-10T16:41:04.818Z,100.00
2023-04-10T16:43:35.721Z,100.00
2023-04-10T16:46:07.284Z,100.00
2023-04-10T16:48:37.548Z,100.00
2023-04-10T16:51:09.185Z,100.00
2023-04-10T16:53:40.348Z,100.00
2023-04-10T16:56:12.195Z,100.00
2023-04-10T16:58:43.620Z,100.00
2023-04-10T17:01:21.124Z,100.00
2023-04-10T17:03:52.244Z,100.00
2023-04-10T17:06:23.756Z,100.00
2023-04-10T17:08:55.224Z,100.00
2023-04-10T17:11:26.850Z,100.00
2023-04-10T17:13:58.231Z,100.00
2023-04-10T17:16:29.493Z,100.00
2023-04-10T17:19:00.537Z,100.00
2023-04-10T17:21:32.776Z,100.00
2023-04-10T17:24:05.157Z,100.00
2023-04-10T17:26:40.837Z,100.00
2023-04-10T17:29:11.862Z,100.00
2023-04-10T17:31:43.332Z,100.00
2023-04-10T17:34:14.895Z,100.00
2023-04-10T17:36:46.329Z,100.00
2023-04-10T17:39:44.806Z,100.00
2023-04-10T17:42:36.137Z,100.00
2023-04-10T17:45:08.556Z,100.00
2023-04-10T17:47:40.090Z,100.00
2023-04-10T17:50:11.817Z,100.00
2023-04-10T17:52:43.170Z,100.00
2023-04-10T17:55:20.555Z,100.00
2023-04-10T17:57:52.313Z,100.00
2023-04-10T18:00:24.134Z,100.00
2023-04-10T18:03:01.453Z,100.00
2023-04-10T18:05:33.376Z,100.00
2023-04-10T18:08:05.106Z,100.00
2023-04-10T18:10:36.840Z,100.00
2023-04-10T18:13:09.070Z,100.00
2023-04-10T18:15:40.055Z,100.00
2023-04-10T18:18:11.662Z,100.00
2023-04-10T18:20:42.740Z,100.00
2023-04-10T18:23:13.988Z,100.00
2023-04-10T18:25:55.747Z,100.00
2023-04-10T18:28:27.203Z,100.00
2023-04-10T18:30:59.730Z,100.00
2023-04-10T18:33:31.113Z,100.00
2023-04-10T18:36:02.440Z,100.00
2023-04-10T18:38:36.985Z,100.00
2023-04-10T18:41:08.890Z,100.00
2023-04-10T18:43:40.560Z,100.00
2023-04-10T18:46:31.790Z,100.00
2023-04-10T18:49:06.896Z,100.00
2023-04-10T18:51:40.298Z,100.00
2023-04-10T18:54:12.180Z,100.00
2023-04-10T18:56:43.249Z,100.00
2023-04-10T18:59:14.848Z,100.00
2023-04-10T19:01:46.297Z,100.00
2023-04-10T19:04:17.442Z,100.00
2023-04-10T19:06:48.548Z,100.00
2023-04-10T19:09:19.922Z,100.00
2023-04-10T19:11:50.928Z,100.00
2023-04-10T19:14:22.168Z,100.00
2023-04-10T19:16:53.202Z,100.00
2023-04-10T19:19:24.294Z,100.00
2023-04-10T19:21:55.574Z,100.00
2023-04-10T19:24:27.216Z,100.00
2023-04-10T19:26:58.952Z,100.00
2023-04-10T19:29:29.590Z,100.00
2023-04-10T19:32:00.884Z,100.00
2023-04-10T19:34:32.172Z,100.00
2023-04-10T19:37:03.850Z,100.00
2023-04-10T19:39:35.275Z,100.00
2023-04-10T19:42:06.728Z,100.00
2023-04-10T19:44:41.019Z,100.00
2023-04-10T19:47:12.100Z,100.00
2023-04-10T19:49:43.157Z,100.00
2023-04-10T19:52:14.341Z,100.00
2023-04-10T19:54:45.691Z,100.00
2023-04-10T19:57:17.345Z,100.00
2023-04-10T19:59:48.566Z,100.00
2023-04-10T20:02:20.175Z,100.00
2023-04-10T20:04:52.138Z,100.00
2023-04-10T20:07:23.282Z,100.00
2023-04-10T20:09:57.614Z,100.00
2023-04-10T20:12:28.780Z,100.00
2023-04-10T20:15:00.075Z,100.00
2023-04-10T20:17:33.721Z,100.00
2023-04-10T20:20:05.330Z,100.00
2023-04-10T20:22:36.534Z,100.00
2023-04-10T20:25:07.973Z,100.00
2023-04-10T20:27:39.375Z,100.00
2023-04-10T20:30:11.435Z,100.00
2023-04-10T20:32:42.561Z,100.00
2023-04-10T20:35:13.942Z,100.00
2023-04-10T20:37:45.135Z,100.00
2023-04-10T20:40:16.223Z,100.00
2023-04-10T20:42:47.777Z,100.00
2023-04-10T20:45:19.010Z,100.00
2023-04-10T20:47:50.199Z,100.00
2023-04-10T20:50:21.431Z,100.00
2023-04-10T20:52:52.563Z,100.00
2023-04-10T20:55:23.648Z,100.00
2023-04-10T20:57:55.309Z,100.00
2023-04-10T21:00:26.625Z,100.00
2023-04-10T21:02:57.912Z,100.00
2023-04-10T21:05:29.860Z,100.00
2023-04-10T21:08:01.092Z,100.00
2023-04-10T21:10:32.331Z,100.00
2023-04-10T21:13:05.901Z,100.00
2023-04-10T21:15:37.247Z,100.00
2023-04-10T21:18:08.626Z,100.00
2023-04-10T21:20:39.858Z,100.00
2023-04-10T21:23:11.198Z,100.00
2023-04-10T21:25:42.276Z,100.00
2023-04-10T21:28:13.561Z,100.00
2023-04-10T21:30:44.798Z,100.00
2023-04-10T21:33:16.579Z,100.00
2023-04-10T21:35:47.655Z,100.00
2023-04-10T21:38:18.883Z,100.00
2023-04-10T21:40:56.272Z,100.00
2023-04-10T21:43:27.424Z,100.00
2023-04-10T21:45:59.444Z,100.00
2023-04-10T21:48:31.696Z,100.00
2023-04-10T21:51:04.675Z,100.00
2023-04-10T21:53:35.684Z,100.00
2023-04-10T21:56:06.927Z,100.00
2023-04-10T21:58:39.484Z,100.00
2023-04-10T22:01:10.503Z,100.00
2023-04-10T22:03:42.231Z,100.00
2023-04-10T22:06:13.993Z,100.00
2023-04-10T22:08:45.100Z,100.00
2023-04-10T22:11:16.189Z,100.00
2023-04-10T22:13:47.649Z,100.00
2023-04-10T22:16:19.190Z,100.00
2023-04-10T22:18:53.751Z,100.00
2023-04-10T22:21:25.541Z,100.00
2023-04-10T22:23:56.803Z,100.00
2023-04-10T22:26:28.031Z,100.00
2023-04-10T22:29:00.698Z,100.00
2023-04-10T22:31:31.966Z,100.00
2023-04-10T22:34:03.044Z,100.00
2023-04-10T22:36:35.412Z,100.00
2023-04-10T22:39:07.013Z,100.00
2023-04-10T22:41:39.234Z,100.00
2023-04-10T22:44:12.085Z,100.00
2023-04-10T22:46:43.721Z,100.00
2023-04-10T22:49:18.549Z,100.00
2023-04-10T22:51:50.153Z,100.00
2023-04-10T22:54:21.400Z,100.00
2023-04-10T22:56:52.622Z,100.00
2023-04-10T22:59:23.775Z,100.00
2023-04-10T23:01:55.216Z,100.00
2023-04-10T23:04:26.759Z,100.00
2023-04-10T23:06:58.476Z,100.00
2023-04-10T23:09:30.029Z,100.00
2023-04-10T23:12:01.168Z,100.00
2023-04-10T23:14:32.304Z,100.00
2023-04-10T23:17:03.475Z,100.00
2023-04-10T23:19:34.932Z,100.00
2023-04-10T23:22:06.953Z,100.00
2023-04-10T23:24:38.050Z,100.00
2023-04-10T23:27:09.548Z,100.00
2023-04-10T23:29:41.062Z,100.00
2023-04-10T23:32:12.228Z,100.00
2023-04-10T23:34:43.198Z,100.00
2023-04-10T23:37:14.687Z,100.00
2023-04-10T23:39:45.936Z,100.00
2023-04-10T23:42:17.048Z,100.00
2023-04-10T23:44:48.210Z,100.00
2023-04-10T23:47:18.981Z,100.00
2023-04-10T23:49:50.624Z,100.00
2023-04-10T23:52:22.022Z,100.00
2023-04-10T23:54:53.410Z,100.00
2023-04-10T23:57:24.664Z,100.00
2023-04-10T23:59:55.834Z,100.00
